»·PEaware :: MNL890 KGCN-KSNA

MNL890 :: KGCN-KSNA

FLIGHT INFORMATION

Flight Status: Arrived
Operator: Unknown
More flights by this operator :: More flights under this callsign
Pilot: Jack S. (366)
Aircraft: Unknown
(DHC8)
More flights by this aircraft type
Origin: KGCN Grand Canyon Natl Park
United States
Destination: KSNA John Wayne-Orange Co
United States
More flights between these airports :: More routes between these airports
Route: +PARKS2 PGS V210 HEC KAYOH4
File this flight plan on PilotEdge
Remarks: mainland
Altitude:
(Current/Filed)
240ft
Speed:
(Current/Filed)
360kts
Departed: 23-Jan-12 06:59 PM
Arrived: 23-Jan-12 08:15 PM
Distance/Time
Traveled:
313nm/1:16
Distance/Time
To Go:
Arrived

Flight Plot

Page will automatically refresh every two minutes.

Flight plan parsing failed; only flown route is shown


Map Options




Map Legend


Flown Route
Filed Route
Departure Airport
Arrival Airport
Navaid (VOR, NDB)
Fix

Horizontal Profiles

Position Reports

Time Latitude Longitude Heading Altitude Ground
Speed
23-Jan-12 18:38 35.961958 -112.134321 220 6616ft 0kts
23-Jan-12 18:39 35.961958 -112.134321 220 6616ft 0kts
23-Jan-12 18:40 35.961958 -112.134321 220 6616ft 0kts
23-Jan-12 18:41 35.961958 -112.134321 220 6616ft 0kts
23-Jan-12 18:42 35.961958 -112.134321 220 6616ft 0kts
23-Jan-12 18:43 35.961958 -112.134321 220 6616ft 0kts
23-Jan-12 18:44 35.961958 -112.134321 220 6616ft 0kts
23-Jan-12 18:45 35.961958 -112.134321 220 6616ft 0kts
23-Jan-12 18:46 35.961958 -112.134321 220 6616ft 0kts
23-Jan-12 18:47 35.961958 -112.134321 220 6616ft 0kts
23-Jan-12 18:48 35.961958 -112.134321 220 6616ft 0kts
23-Jan-12 18:49 35.961958 -112.134321 220 6616ft 0kts
23-Jan-12 18:52 35.961960 -112.134318 220 6616ft 0kts
23-Jan-12 18:53 35.961960 -112.134318 220 6616ft 0kts
23-Jan-12 18:54 35.961960 -112.134318 220 6616ft 0kts
23-Jan-12 18:55 35.961592 -112.134720 224 6616ft 11kts
23-Jan-12 18:56 35.961251 -112.136295 271 6616ft 0kts
23-Jan-12 18:57 35.961254 -112.136361 272 6616ft 2kts
23-Jan-12 18:58 35.957851 -112.141093 218 6616ft 99kts
23-Jan-12 18:59 35.927146 -112.178162 222 8172ft 167kts
23-Jan-12 19:00 35.890561 -112.211616 209 10349ft 175kts
23-Jan-12 19:01 35.840195 -112.250605 210 11641ft 225kts
23-Jan-12 19:02 35.789862 -112.296467 246 13676ft 237kts
23-Jan-12 19:03 35.773147 -112.376064 253 15689ft 244kts
23-Jan-12 19:04 35.760584 -112.459187 255 17429ft 251kts
23-Jan-12 19:05 35.749273 -112.545368 256 18918ft 258kts
23-Jan-12 19:06 35.738286 -112.633804 256 20189ft 265kts
23-Jan-12 19:07 35.727125 -112.724853 256 21288ft 273kts
23-Jan-12 19:08 35.716423 -112.811966 256 22182ft 281kts
23-Jan-12 19:09 35.704431 -112.908936 256 22986ft 290kts
23-Jan-12 19:10 35.693092 -113.000147 255 23608ft 301kts
23-Jan-12 19:11 35.684458 -113.069438 258 24026ft 308kts
23-Jan-12 19:12 35.674190 -113.156278 258 24037ft 325kts
23-Jan-12 19:13 35.668339 -113.205425 259 24025ft 330kts
23-Jan-12 19:14 35.662540 -113.252954 259 24010ft 333kts
23-Jan-12 19:15 35.648626 -113.364445 259 23999ft 335kts
23-Jan-12 19:16 35.639720 -113.434671 259 23998ft 336kts
23-Jan-12 19:17 35.627613 -113.528981 258 23998ft 338kts
23-Jan-12 19:18 35.599410 -113.632055 248 23998ft 335kts
23-Jan-12 19:19 35.569112 -113.732926 249 23998ft 335kts
23-Jan-12 19:20 35.538313 -113.836392 249 23997ft 335kts
23-Jan-12 19:21 35.509367 -113.933253 248 23996ft 335kts
23-Jan-12 19:22 35.478996 -114.034368 248 23996ft 336kts
23-Jan-12 19:23 35.447674 -114.139799 249 24000ft 336kts
23-Jan-12 19:24 35.415968 -114.247426 249 24002ft 336kts
23-Jan-12 19:25 35.389771 -114.335190 246 23999ft 337kts
23-Jan-12 19:26 35.359249 -114.435254 247 24000ft 353kts
23-Jan-12 19:28 35.292453 -114.654534 247 24003ft 374kts
23-Jan-12 19:29 35.256644 -114.769953 247 24002ft 376kts
23-Jan-12 19:30 35.222696 -114.879849 247 24002ft 377kts
23-Jan-12 19:31 35.190825 -114.982807 247 24001ft 376kts
23-Jan-12 19:32 35.160126 -115.081355 248 23999ft 381kts
23-Jan-12 19:33 35.125902 -115.195861 255 23986ft 382kts
23-Jan-12 19:34 35.094957 -115.319420 257 23976ft 378kts
23-Jan-12 19:35 35.063938 -115.441319 257 23967ft 374kts
23-Jan-12 19:36 35.033281 -115.561192 255 23988ft 365kts
23-Jan-12 19:37 35.003061 -115.678471 253 24003ft 357kts
23-Jan-12 19:38 34.973185 -115.792980 253 23987ft 353kts
23-Jan-12 19:39 34.943396 -115.907062 253 23975ft 350kts
23-Jan-12 19:40 34.913813 -116.020040 253 23992ft 349kts
23-Jan-12 19:41 34.884789 -116.131664 253 24005ft 352kts
23-Jan-12 19:42 34.855435 -116.245953 253 23997ft 353kts
23-Jan-12 19:43 34.825498 -116.359515 254 23967ft 350kts
23-Jan-12 19:44 34.792375 -116.470250 234 23936ft 353kts
23-Jan-12 19:45 34.722516 -116.555318 228 23955ft 357kts
23-Jan-12 19:46 34.652301 -116.641117 228 23950ft 359kts
23-Jan-12 19:47 34.584339 -116.724146 228 23447ft 328kts
23-Jan-12 19:48 34.520976 -116.801457 229 21498ft 318kts
23-Jan-12 19:49 34.464639 -116.870310 227 19835ft 306kts
23-Jan-12 19:50 34.406855 -116.940809 225 18048ft 294kts
23-Jan-12 19:51 34.353404 -117.005661 224 16168ft 293kts
23-Jan-12 19:52 34.302384 -117.067358 224 14489ft 289kts
23-Jan-12 19:53 34.245727 -117.115595 187 13050ft 272kts
23-Jan-12 19:54 34.178773 -117.126107 186 11333ft 277kts
23-Jan-12 19:55 34.109202 -117.136636 186 10994ft 283kts
23-Jan-12 19:56 34.050846 -117.145396 186 10992ft 285kts
23-Jan-12 19:57 33.975323 -117.156589 185 10995ft 288kts
23-Jan-12 19:58 33.906510 -117.170577 211 10966ft 290kts
23-Jan-12 19:59 33.878046 -117.228294 248 11158ft 237kts
23-Jan-12 20:00 33.858860 -117.289538 251 10628ft 226kts
23-Jan-12 20:01 33.843476 -117.344861 252 9656ft 223kts
23-Jan-12 20:02 33.828745 -117.400717 253 8715ft 218kts
23-Jan-12 20:03 33.817585 -117.444060 253 7983ft 215kts
23-Jan-12 20:05 33.788159 -117.561100 263 5933ft 207kts
23-Jan-12 20:06 33.815840 -117.619706 306 5064ft 208kts
23-Jan-12 20:07 33.845620 -117.671097 304 5004ft 209kts
23-Jan-12 20:08 33.851531 -117.714824 235 4965ft 187kts
23-Jan-12 20:09 33.826327 -117.756242 234 4050ft 185kts
23-Jan-12 20:10 33.796897 -117.793306 207 2728ft 184kts
23-Jan-12 20:11 33.754890 -117.818618 208 1738ft 174kts
23-Jan-12 20:12 33.722251 -117.839255 209 993ft 141kts
23-Jan-12 20:13 33.690868 -117.859211 209 310ft 155kts
23-Jan-12 20:14 33.667702 -117.873256 144 63ft 4kts
23-Jan-12 20:15 33.667583 -117.872745 76 63ft 0kts
23-Jan-12 20:16 33.668009 -117.872026 46 63ft 8kts
23-Jan-12 20:17 33.670645 -117.869150 37 63ft 16kts
23-Jan-12 20:18 33.674113 -117.865895 78 63ft 0kts
23-Jan-12 20:20 33.674113 -117.865895 78 63ft 0kts
23-Jan-12 20:21 33.674113 -117.865895 78 63ft 0kts
23-Jan-12 20:22 33.674113 -117.865895 78 63ft 0kts
23-Jan-12 20:23 33.674113 -117.865895 78 63ft 0kts
23-Jan-12 20:24 33.674113 -117.865895 78 63ft 0kts
23-Jan-12 20:25 33.674113 -117.865895 78 63ft 0kts
23-Jan-12 20:26 33.674113 -117.865895 78 63ft 0kts
23-Jan-12 20:27 33.674113 -117.865895 78 63ft 0kts
23-Jan-12 20:28 33.674113 -117.865895 78 63ft 0kts

Navigation Log

Ident Type
Flight plan parsing failed, navigation log unavailable